sensor_id;sensor_type;location;lat;lon;timestamp;pressure;altitude;pressure_sealevel;temperature;humidity
29433;BME280;16405;53.964;13.448;2022-09-09T00:00:55;100506.03;;;14.13;100.00
29433;BME280;16405;53.964;13.448;2022-09-09T00:03:27;100512.09;;;14.15;100.00
29433;BME280;16405;53.964;13.448;2022-09-09T00:06:18;100514.53;;;14.18;100.00
29433;BME280;16405;53.964;13.448;2022-09-09T00:09:21;100515.28;;;14.20;100.00
29433;BME280;16405;53.964;13.448;2022-09-09T00:14:54;100510.63;;;14.24;100.00
29433;BME280;16405;53.964;13.448;2022-09-09T00:17:46;100508.75;;;14.26;100.00
29433;BME280;16405;53.964;13.448;2022-09-09T00:22:57;100514.88;;;14.26;100.00
29433;BME280;16405;53.964;13.448;2022-09-09T00:25:37;100515.72;;;14.27;100.00
29433;BME280;16405;53.964;13.448;2022-09-09T00:28:20;100514.88;;;14.26;100.00
29433;BME280;16405;53.964;13.448;2022-09-09T00:30:48;100519.13;;;14.29;100.00
29433;BME280;16405;53.964;13.448;2022-09-09T00:33:17;100524.41;;;14.29;100.00
29433;BME280;16405;53.964;13.448;2022-09-09T00:35:49;100526.13;;;14.30;100.00
29433;BME280;16405;53.964;13.448;2022-09-09T00:38:51;100523.38;;;14.31;100.00
29433;BME280;16405;53.964;13.448;2022-09-09T00:41:50;100527.16;;;14.27;100.00
29433;BME280;16405;53.964;13.448;2022-09-09T00:44:30;100521.97;;;14.26;100.00
29433;BME280;16405;53.964;13.448;2022-09-09T00:50:17;100509.22;;;14.18;100.00
29433;BME280;16405;53.964;13.448;2022-09-09T00:56:18;100520.34;;;14.10;100.00
29433;BME280;16405;53.964;13.448;2022-09-09T00:59:27;100526.78;;;14.06;100.00
29433;BME280;16405;53.964;13.448;2022-09-09T01:01:57;100521.47;;;14.06;100.00
29433;BME280;16405;53.964;13.448;2022-09-09T01:04:33;100520.72;;;14.04;100.00
29433;BME280;16405;53.964;13.448;2022-09-09T01:07:32;100521.97;;;13.99;100.00
29433;BME280;16405;53.964;13.448;2022-09-09T01:10:09;100520.28;;;13.98;100.00
29433;BME280;16405;53.964;13.448;2022-09-09T01:12:43;100529.16;;;13.97;100.00
29433;BME280;16405;53.964;13.448;2022-09-09T01:15:29;100524.06;;;13.93;100.00
29433;BME280;16405;53.964;13.448;2022-09-09T01:18:11;100534.53;;;13.95;100.00
29433;BME280;16405;53.964;13.448;2022-09-09T01:21:13;100537.75;;;14.00;100.00
29433;BME280;16405;53.964;13.448;2022-09-09T01:26:48;100552.09;;;14.10;100.00
29433;BME280;16405;53.964;13.448;2022-09-09T01:29:18;100553.69;;;14.13;100.00
29433;BME280;16405;53.964;13.448;2022-09-09T01:32:01;100554.34;;;14.16;100.00
29433;BME280;16405;53.964;13.448;2022-09-09T01:34:38;100556.81;;;14.20;100.00
29433;BME280;16405;53.964;13.448;2022-09-09T01:37:10;100553.94;;;14.23;100.00
29433;BME280;16405;53.964;13.448;2022-09-09T01:39:41;100547.59;;;14.25;100.00
29433;BME280;16405;53.964;13.448;2022-09-09T01:42:12;100549.22;;;14.28;100.00
29433;BME280;16405;53.964;13.448;2022-09-09T01:44:41;100558.00;;;14.28;100.00
29433;BME280;16405;53.964;13.448;2022-09-09T01:47:07;100556.03;;;14.32;100.00
29433;BME280;16405;53.964;13.448;2022-09-09T01:49:33;100554.97;;;14.34;100.00
29433;BME280;16405;53.964;13.448;2022-09-09T01:51:59;100560.25;;;14.34;100.00
29433;BME280;16405;53.964;13.448;2022-09-09T01:54:31;100558.25;;;14.38;100.00
29433;BME280;16405;53.964;13.448;2022-09-09T01:57:26;100563.34;;;14.41;100.00
29433;BME280;16405;53.964;13.448;2022-09-09T02:00:08;100559.66;;;14.44;100.00
29433;BME280;16405;53.964;13.448;2022-09-09T02:02:52;100565.03;;;14.42;100.00
29433;BME280;16405;53.964;13.448;2022-09-09T02:06:05;100557.09;;;14.42;100.00
29433;BME280;16405;53.964;13.448;2022-09-09T02:08:52;100552.66;;;14.43;100.00
29433;BME280;16405;53.964;13.448;2022-09-09T02:11:25;100560.50;;;14.44;100.00
29433;BME280;16405;53.964;13.448;2022-09-09T02:16:50;100574.56;;;14.45;100.00
29433;BME280;16405;53.964;13.448;2022-09-09T02:19:32;100579.88;;;14.45;100.00
29433;BME280;16405;53.964;13.448;2022-09-09T02:22:01;100573.88;;;14.43;100.00
29433;BME280;16405;53.964;13.448;2022-09-09T02:24:33;100570.25;;;14.44;100.00
29433;BME280;16405;53.964;13.448;2022-09-09T02:27:05;100572.06;;;14.43;100.00
29433;BME280;16405;53.964;13.448;2022-09-09T02:29:37;100569.50;;;14.42;100.00
29433;BME280;16405;53.964;13.448;2022-09-09T02:32:14;100576.38;;;14.44;100.00
29433;BME280;16405;53.964;13.448;2022-09-09T02:34:58;100564.19;;;14.42;100.00
29433;BME280;16405;53.964;13.448;2022-09-09T02:37:36;100569.28;;;14.45;100.00
29433;BME280;16405;53.964;13.448;2022-09-09T02:40:08;100574.50;;;14.46;100.00
29433;BME280;16405;53.964;13.448;2022-09-09T02:42:46;100576.09;;;14.49;100.00
29433;BME280;16405;53.964;13.448;2022-09-09T02:45:17;100583.94;;;14.50;100.00
29433;BME280;16405;53.964;13.448;2022-09-09T02:53:34;100587.44;;;14.51;100.00
29433;BME280;16405;53.964;13.448;2022-09-09T02:56:16;100577.72;;;14.51;100.00
29433;BME280;16405;53.964;13.448;2022-09-09T02:58:42;100578.44;;;14.53;100.00
29433;BME280;16405;53.964;13.448;2022-09-09T03:01:16;100581.94;;;14.54;100.00
29433;BME280;16405;53.964;13.448;2022-09-09T03:03:42;100581.84;;;14.55;100.00
29433;BME280;16405;53.964;13.448;2022-09-09T03:06:10;100580.84;;;14.58;100.00
29433;BME280;16405;53.964;13.448;2022-09-09T03:08:40;100580.72;;;14.60;100.00
29433;BME280;16405;53.964;13.448;2022-09-09T03:11:12;100573.50;;;14.62;100.00
29433;BME280;16405;53.964;13.448;2022-09-09T03:13:39;100575.22;;;14.63;100.00
29433;BME280;16405;53.964;13.448;2022-09-09T03:16:07;100580.41;;;14.64;100.00
29433;BME280;16405;53.964;13.448;2022-09-09T03:18:33;100588.25;;;14.66;100.00
29433;BME280;16405;53.964;13.448;2022-09-09T03:21:00;100584.56;;;14.68;100.00
29433;BME280;16405;53.964;13.448;2022-09-09T03:23:26;100594.31;;;14.68;100.00
29433;BME280;16405;53.964;13.448;2022-09-09T03:25:52;100594.31;;;14.68;100.00
29433;BME280;16405;53.964;13.448;2022-09-09T03:28:22;100600.38;;;14.70;100.00
29433;BME280;16405;53.964;13.448;2022-09-09T03:30:50;100602.09;;;14.71;100.00
29433;BME280;16405;53.964;13.448;2022-09-09T03:33:16;100607.25;;;14.72;100.00
29433;BME280;16405;53.964;13.448;2022-09-09T03:35:54;100608.97;;;14.73;100.00
29433;BME280;16405;53.964;13.448;2022-09-09T03:38:23;100611.50;;;14.75;100.00
29433;BME280;16405;53.964;13.448;2022-09-09T03:40:59;100605.25;;;14.76;100.00
29433;BME280;16405;53.964;13.448;2022-09-09T03:43:26;100605.25;;;14.76;100.00
29433;BME280;16405;53.964;13.448;2022-09-09T03:45:53;100601.66;;;14.77;100.00
29433;BME280;16405;53.964;13.448;2022-09-09T03:48:25;100596.34;;;14.77;100.00
29433;BME280;16405;53.964;13.448;2022-09-09T03:50:54;100595.50;;;14.76;100.00
29433;BME280;16405;53.964;13.448;2022-09-09T03:53:27;100607.91;;;14.76;100.00
29433;BME280;16405;53.964;13.448;2022-09-09T03:55:55;100599.22;;;14.74;100.00
29433;BME280;16405;53.964;13.448;2022-09-09T03:58:24;100606.19;;;14.75;100.00
29433;BME280;16405;53.964;13.448;2022-09-09T04:00:56;100606.19;;;14.75;100.00
29433;BME280;16405;53.964;13.448;2022-09-09T04:03:23;100610.78;;;14.73;100.00
29433;BME280;16405;53.964;13.448;2022-09-09T04:05:51;100612.38;;;14.75;100.00
29433;BME280;16405;53.964;13.448;2022-09-09T04:08:18;100613.22;;;14.76;100.00
29433;BME280;16405;53.964;13.448;2022-09-09T04:10:49;100609.59;;;14.77;100.00
29433;BME280;16405;53.964;13.448;2022-09-09T04:13:17;100605.25;;;14.76;100.00
29433;BME280;16405;53.964;13.448;2022-09-09T04:15:50;100610.47;;;14.77;100.00
29433;BME280;16405;53.964;13.448;2022-09-09T04:18:16;100607.06;;;14.75;100.00
29433;BME280;16405;53.964;13.448;2022-09-09T04:20:42;100615.13;;;14.74;100.00
29433;BME280;16405;53.964;13.448;2022-09-09T04:23:09;100610.88;;;14.71;100.00
29433;BME280;16405;53.964;13.448;2022-09-09T04:25:34;100624.22;;;14.70;100.00
29433;BME280;16405;53.964;13.448;2022-09-09T04:28:00;100628.75;;;14.68;100.00
29433;BME280;16405;53.964;13.448;2022-09-09T04:30:29;100621.03;;;14.65;100.00
29433;BME280;16405;53.964;13.448;2022-09-09T04:32:55;100621.03;;;14.65;100.00
29433;BME280;16405;53.964;13.448;2022-09-09T04:35:21;100631.63;;;14.65;100.00
29433;BME280;16405;53.964;13.448;2022-09-09T04:37:47;100630.75;;;14.64;100.00
29433;BME280;16405;53.964;13.448;2022-09-09T04:40:14;100628.97;;;14.65;100.00
29433;BME280;16405;53.964;13.448;2022-09-09T04:42:40;100638.53;;;14.67;100.00
29433;BME280;16405;53.964;13.448;2022-09-09T04:45:12;100636.63;;;14.69;100.00
29433;BME280;16405;53.964;13.448;2022-09-09T04:47:39;100649.66;;;14.72;100.00
29433;BME280;16405;53.964;13.448;2022-09-09T04:50:05;100647.88;;;14.73;100.00
29433;BME280;16405;53.964;13.448;2022-09-09T04:52:33;100657.31;;;14.77;100.00
29433;BME280;16405;53.964;13.448;2022-09-09T04:54:59;100650.22;;;14.77;100.00
29433;BME280;16405;53.964;13.448;2022-09-09T04:57:27;100652.75;;;14.79;100.00
29433;BME280;16405;53.964;13.448;2022-09-09T04:59:54;100650.75;;;14.83;100.00
29433;BME280;16405;53.964;13.448;2022-09-09T05:02:20;100651.44;;;14.86;100.00
29433;BME280;16405;53.964;13.448;2022-09-09T05:04:46;100650.28;;;14.90;100.00
29433;BME280;16405;53.964;13.448;2022-09-09T05:07:11;100654.72;;;14.90;100.00
29433;BME280;16405;53.964;13.448;2022-09-09T05:09:38;100647.63;;;14.90;100.00
29433;BME280;16405;53.964;13.448;2022-09-09T05:12:13;100649.41;;;14.90;100.00
29433;BME280;16405;53.964;13.448;2022-09-09T05:14:39;100649.00;;;14.96;100.00
29433;BME280;16405;53.964;13.448;2022-09-09T05:17:05;100657.53;;;15.01;100.00
29433;BME280;16405;53.964;13.448;2022-09-09T05:19:33;100662.53;;;15.06;100.00
29433;BME280;16405;53.964;13.448;2022-09-09T05:22:02;100664.72;;;14.99;100.00
29433;BME280;16405;53.964;13.448;2022-09-09T05:24:28;100670.47;;;15.06;100.00
29433;BME280;16405;53.964;13.448;2022-09-09T05:26:54;100660.72;;;15.06;100.00
29433;BME280;16405;53.964;13.448;2022-09-09T05:29:25;100672.72;;;15.12;100.00
29433;BME280;16405;53.964;13.448;2022-09-09T05:31:54;100671.53;;;15.16;100.00
29433;BME280;16405;53.964;13.448;2022-09-09T05:34:20;100659.91;;;15.18;100.00
29433;BME280;16405;53.964;13.448;2022-09-09T05:36:46;100664.25;;;15.20;100.00
29433;BME280;16405;53.964;13.448;2022-09-09T05:39:12;100656.94;;;15.23;100.00
29433;BME280;16405;53.964;13.448;2022-09-09T05:41:40;100662.78;;;15.28;100.00
29433;BME280;16405;53.964;13.448;2022-09-09T05:44:09;100668.72;;;15.32;100.00
29433;BME280;16405;53.964;13.448;2022-09-09T05:46:35;100667.56;;;15.36;100.00
29433;BME280;16405;53.964;13.448;2022-09-09T05:49:02;100663.00;;;15.38;100.00
29433;BME280;16405;53.964;13.448;2022-09-09T05:51:29;100665.44;;;15.41;100.00
29433;BME280;16405;53.964;13.448;2022-09-09T05:54:00;100660.78;;;15.45;100.00
29433;BME280;16405;53.964;13.448;2022-09-09T05:56:28;100659.72;;;15.47;100.00
29433;BME280;16405;53.964;13.448;2022-09-09T05:58:55;100667.47;;;15.50;100.00
29433;BME280;16405;53.964;13.448;2022-09-09T06:01:29;100671.50;;;15.56;100.00
29433;BME280;16405;53.964;13.448;2022-09-09T06:03:55;100673.66;;;15.64;100.00
29433;BME280;16405;53.964;13.448;2022-09-09T06:06:31;100682.16;;;15.69;100.00
29433;BME280;16405;53.964;13.448;2022-09-09T06:09:02;100676.94;;;15.67;100.00
29433;BME280;16405;53.964;13.448;2022-09-09T06:11:30;100674.09;;;15.70;100.00
29433;BME280;16405;53.964;13.448;2022-09-09T06:14:03;100677.50;;;15.72;100.00
29433;BME280;16405;53.964;13.448;2022-09-09T06:16:30;100682.69;;;15.74;100.00
29433;BME280;16405;53.964;13.448;2022-09-09T06:19:01;100694.19;;;15.74;100.00
29433;BME280;16405;53.964;13.448;2022-09-09T06:21:33;100702.34;;;15.71;100.00
29433;BME280;16405;53.964;13.448;2022-09-09T06:24:00;100703.09;;;15.73;100.00
29433;BME280;16405;53.964;13.448;2022-09-09T06:26:30;100710.81;;;15.64;100.00
29433;BME280;16405;53.964;13.448;2022-09-09T06:28:57;100706.34;;;15.64;100.00
29433;BME280;16405;53.964;13.448;2022-09-09T06:31:26;100714.84;;;15.69;100.00
29433;BME280;16405;53.964;13.448;2022-09-09T06:33:59;100711.44;;;15.67;100.00
29433;BME280;16405;53.964;13.448;2022-09-09T06:36:40;100704.44;;;15.66;100.00
29433;BME280;16405;53.964;13.448;2022-09-09T06:39:07;100703.28;;;15.70;100.00
29433;BME280;16405;53.964;13.448;2022-09-09T06:41:34;100692.56;;;15.72;100.00
29433;BME280;16405;53.964;13.448;2022-09-09T06:44:00;100695.03;;;15.75;100.00
29433;BME280;16405;53.964;13.448;2022-09-09T06:46:29;100690.25;;;15.80;100.00
29433;BME280;16405;53.964;13.448;2022-09-09T06:48:57;100700.03;;;15.92;100.00
29433;BME280;16405;53.964;13.448;2022-09-09T06:51:34;100711.59;;;16.04;100.00
29433;BME280;16405;53.964;13.448;2022-09-09T06:54:02;100701.28;;;15.99;100.00
29433;BME280;16405;53.964;13.448;2022-09-09T06:56:32;100707.66;;;16.10;100.00
29433;BME280;16405;53.964;13.448;2022-09-09T06:59:02;100711.47;;;16.18;100.00
29433;BME280;16405;53.964;13.448;2022-09-09T07:01:34;100718.03;;;16.26;100.00
29433;BME280;16405;53.964;13.448;2022-09-09T07:04:01;100716.03;;;16.29;100.00
29433;BME280;16405;53.964;13.448;2022-09-09T07:06:41;100712.63;;;16.27;100.00
29433;BME280;16405;53.964;13.448;2022-09-09T07:09:16;100727.59;;;16.28;100.00
29433;BME280;16405;53.964;13.448;2022-09-09T07:11:48;100721.84;;;16.34;100.00
29433;BME280;16405;53.964;13.448;2022-09-09T07:14:18;100716.13;;;16.28;100.00
29433;BME280;16405;53.964;13.448;2022-09-09T07:16:45;100731.41;;;16.37;100.00
29433;BME280;16405;53.964;13.448;2022-09-09T07:19:12;100728.56;;;16.40;100.00
29433;BME280;16405;53.964;13.448;2022-09-09T07:21:39;100721.00;;;16.47;100.00
29433;BME280;16405;53.964;13.448;2022-09-09T07:24:11;100729.88;;;16.58;100.00
29433;BME280;16405;53.964;13.448;2022-09-09T07:26:38;100733.28;;;16.60;100.00
29433;BME280;16405;53.964;13.448;2022-09-09T07:29:05;100734.03;;;16.63;100.00
29433;BME280;16405;53.964;13.448;2022-09-09T07:31:36;100741.38;;;16.72;100.00
29433;BME280;16405;53.964;13.448;2022-09-09T07:34:04;100739.31;;;16.88;100.00
29433;BME280;16405;53.964;13.448;2022-09-09T07:36:36;100747.97;;;17.03;100.00
29433;BME280;16405;53.964;13.448;2022-09-09T07:39:12;100747.59;;;17.20;100.00
29433;BME280;16405;53.964;13.448;2022-09-09T07:41:49;100741.19;;;17.23;100.00
29433;BME280;16405;53.964;13.448;2022-09-09T07:44:21;100746.03;;;17.29;100.00
29433;BME280;16405;53.964;13.448;2022-09-09T07:46:48;100761.81;;;17.32;100.00
29433;BME280;16405;53.964;13.448;2022-09-09T07:49:14;100762.00;;;17.29;100.00
29433;BME280;16405;53.964;13.448;2022-09-09T07:51:44;100758.63;;;17.27;100.00
29433;BME280;16405;53.964;13.448;2022-09-09T07:54:13;100758.84;;;17.24;100.00
29433;BME280;16405;53.964;13.448;2022-09-09T07:56:41;100768.19;;;17.30;100.00
29433;BME280;16405;53.964;13.448;2022-09-09T07:59:08;100766.53;;;17.16;100.00
29433;BME280;16405;53.964;13.448;2022-09-09T08:01:44;100775.03;;;17.21;100.00
29433;BME280;16405;53.964;13.448;2022-09-09T08:04:17;100762.06;;;17.16;100.00
29433;BME280;16405;53.964;13.448;2022-09-09T08:06:50;100770.84;;;17.06;100.00
29433;BME280;16405;53.964;13.448;2022-09-09T08:09:21;100769.59;;;16.98;100.00
29433;BME280;16405;53.964;13.448;2022-09-09T08:11:48;100767.69;;;17.00;100.00
29433;BME280;16405;53.964;13.448;2022-09-09T08:14:14;100768.72;;;17.11;100.00
29433;BME280;16405;53.964;13.448;2022-09-09T08:16:46;100768.47;;;17.14;100.00
29433;BME280;16405;53.964;13.448;2022-09-09T08:19:13;100769.31;;;17.14;100.00
29433;BME280;16405;53.964;13.448;2022-09-09T08:21:41;100770.72;;;17.31;100.00
29433;BME280;16405;53.964;13.448;2022-09-09T08:24:13;100769.16;;;17.29;100.00
29433;BME280;16405;53.964;13.448;2022-09-09T08:26:49;100758.66;;;17.38;100.00
29433;BME280;16405;53.964;13.448;2022-09-09T08:29:19;100768.03;;;17.55;100.00
29433;BME280;16405;53.964;13.448;2022-09-09T08:31:54;100766.00;;;17.83;100.00
29433;BME280;16405;53.964;13.448;2022-09-09T08:34:24;100765.63;;;17.88;100.00
29433;BME280;16405;53.964;13.448;2022-09-09T08:36:58;100762.50;;;17.94;100.00
29433;BME280;16405;53.964;13.448;2022-09-09T08:39:27;100759.63;;;18.08;100.00
29433;BME280;16405;53.964;13.448;2022-09-09T08:47:44;100765.69;;;18.67;100.00
29433;BME280;16405;53.964;13.448;2022-09-09T08:50:40;100766.66;;;18.65;97.45
29433;BME280;16405;53.964;13.448;2022-09-09T08:53:22;100770.19;;;18.89;96.71
29433;BME280;16405;53.964;13.448;2022-09-09T08:56:02;100783.59;;;18.98;95.86
29433;BME280;16405;53.964;13.448;2022-09-09T09:09:48;100796.53;;;20.11;91.76
29433;BME280;16405;53.964;13.448;2022-09-09T09:12:39;100790.56;;;19.98;87.89
29433;BME280;16405;53.964;13.448;2022-09-09T09:15:25;100796.78;;;20.08;88.65
29433;BME280;16405;53.964;13.448;2022-09-09T09:17:52;100798.88;;;20.04;89.04
29433;BME280;16405;53.964;13.448;2022-09-09T09:20:28;100800.53;;;19.96;89.60
29433;BME280;16405;53.964;13.448;2022-09-09T09:23:09;100805.28;;;20.13;90.10
29433;BME280;16405;53.964;13.448;2022-09-09T09:25:41;100797.63;;;20.08;89.59
29433;BME280;16405;53.964;13.448;2022-09-09T09:28:17;100801.53;;;20.25;88.38
29433;BME280;16405;53.964;13.448;2022-09-09T09:36:18;100802.91;;;19.99;88.47
29433;BME280;16405;53.964;13.448;2022-09-09T09:39:02;100802.31;;;19.95;86.89
29433;BME280;16405;53.964;13.448;2022-09-09T09:41:42;100802.09;;;19.98;87.08
29433;BME280;16405;53.964;13.448;2022-09-09T09:44:32;100803.31;;;20.15;86.08
29433;BME280;16405;53.964;13.448;2022-09-09T09:47:19;100800.06;;;20.12;85.44
29433;BME280;16405;53.964;13.448;2022-09-09T09:49:59;100804.47;;;20.22;84.76
29433;BME280;16405;53.964;13.448;2022-09-09T09:52:34;100810.34;;;20.37;84.85
29433;BME280;16405;53.964;13.448;2022-09-09T09:55:13;100805.94;;;20.57;85.67
29433;BME280;16405;53.964;13.448;2022-09-09T09:57:42;100803.81;;;20.92;84.72
29433;BME280;16405;53.964;13.448;2022-09-09T10:00:24;100802.34;;;21.38;84.70
29433;BME280;16405;53.964;13.448;2022-09-09T10:03:49;100800.75;;;21.16;79.64
29433;BME280;16405;53.964;13.448;2022-09-09T10:06:34;100802.22;;;20.79;81.21
29433;BME280;16405;53.964;13.448;2022-09-09T10:09:32;100802.31;;;20.37;82.71
29433;BME280;16405;53.964;13.448;2022-09-09T10:16:13;100799.00;;;19.82;85.83
29433;BME280;16405;53.964;13.448;2022-09-09T10:19:35;100801.09;;;19.99;86.44
29433;BME280;16405;53.964;13.448;2022-09-09T10:22:26;100799.59;;;20.06;84.52
29433;BME280;16405;53.964;13.448;2022-09-09T10:28:22;100803.31;;;20.15;85.14
29433;BME280;16405;53.964;13.448;2022-09-09T10:40:25;100808.06;;;20.33;84.17
29433;BME280;16405;53.964;13.448;2022-09-09T10:50:50;100808.78;;;21.16;83.67
29433;BME280;16405;53.964;13.448;2022-09-09T10:53:37;100811.75;;;21.13;81.06
29433;BME280;16405;53.964;13.448;2022-09-09T10:56:11;100809.09;;;21.13;80.66
29433;BME280;16405;53.964;13.448;2022-09-09T11:02:16;100820.28;;;20.97;79.94
29433;BME280;16405;53.964;13.448;2022-09-09T11:08:23;100813.22;;;20.86;80.07
29433;BME280;16405;53.964;13.448;2022-09-09T11:11:07;100816.31;;;20.81;80.47
29433;BME280;16405;53.964;13.448;2022-09-09T11:20:30;100833.88;;;21.15;81.03
29433;BME280;16405;53.964;13.448;2022-09-09T11:38:11;100829.19;;;20.97;81.33
29433;BME280;16405;53.964;13.448;2022-09-09T11:41:21;100829.09;;;21.08;81.64
29433;BME280;16405;53.964;13.448;2022-09-09T11:44:00;100825.41;;;21.00;80.55
29433;BME280;16405;53.964;13.448;2022-09-09T11:46:52;100824.84;;;21.06;81.24
29433;BME280;16405;53.964;13.448;2022-09-09T12:03:08;100810.66;;;21.35;79.47
29433;BME280;16405;53.964;13.448;2022-09-09T12:05:52;100822.22;;;21.25;79.86
29433;BME280;16405;53.964;13.448;2022-09-09T12:08:28;100818.66;;;21.25;78.74
29433;BME280;16405;53.964;13.448;2022-09-09T12:10:59;100823.34;;;21.33;78.76
29433;BME280;16405;53.964;13.448;2022-09-09T12:13:38;100806.66;;;21.09;79.13
29433;BME280;16405;53.964;13.448;2022-09-09T12:32:33;100802.81;;;21.43;79.40
29433;BME280;16405;53.964;13.448;2022-09-09T12:35:31;100795.03;;;21.59;78.27
29433;BME280;16405;53.964;13.448;2022-09-09T12:38:43;100797.84;;;21.38;77.62
29433;BME280;16405;53.964;13.448;2022-09-09T12:41:56;100807.47;;;21.60;78.30
29433;BME280;16405;53.964;13.448;2022-09-09T12:45:33;100806.47;;;21.71;77.80
29433;BME280;16405;53.964;13.448;2022-09-09T13:05:34;100794.59;;;21.83;74.63
29433;BME280;16405;53.964;13.448;2022-09-09T13:09:03;100788.00;;;21.68;75.04
29433;BME280;16405;53.964;13.448;2022-09-09T13:15:01;100784.34;;;21.49;77.41
29433;BME280;16405;53.964;13.448;2022-09-09T13:17:51;100782.94;;;21.45;79.43
29433;BME280;16405;53.964;13.448;2022-09-09T13:27:51;100766.16;;;21.43;81.48
29433;BME280;16405;53.964;13.448;2022-09-09T13:30:41;100769.03;;;21.21;82.70
29433;BME280;16405;53.964;13.448;2022-09-09T13:33:51;100765.59;;;21.49;82.58
29433;BME280;16405;53.964;13.448;2022-09-09T13:36:51;100763.31;;;21.55;82.24
29433;BME280;16405;53.964;13.448;2022-09-09T13:40:04;100760.94;;;21.52;82.45
29433;BME280;16405;53.964;13.448;2022-09-09T13:46:40;100760.31;;;21.87;81.23
29433;BME280;16405;53.964;13.448;2022-09-09T13:49:35;100766.25;;;21.90;80.31
29433;BME280;16405;53.964;13.448;2022-09-09T13:55:13;100751.31;;;22.35;78.23
29433;BME280;16405;53.964;13.448;2022-09-09T14:00:53;100764.00;;;22.43;75.71
29433;BME280;16405;53.964;13.448;2022-09-09T14:03:33;100760.38;;;22.34;77.49
29433;BME280;16405;53.964;13.448;2022-09-09T14:06:11;100763.63;;;22.38;76.10
29433;BME280;16405;53.964;13.448;2022-09-09T14:09:04;100767.34;;;22.07;75.44
29433;BME280;16405;53.964;13.448;2022-09-09T14:11:33;100770.13;;;22.16;76.20
29433;BME280;16405;53.964;13.448;2022-09-09T14:14:12;100760.59;;;22.03;75.78
29433;BME280;16405;53.964;13.448;2022-09-09T14:17:01;100764.34;;;22.30;74.96
29433;BME280;16405;53.964;13.448;2022-09-09T14:19:33;100755.44;;;22.29;76.12
29433;BME280;16405;53.964;13.448;2022-09-09T14:22:10;100753.13;;;22.44;74.80
29433;BME280;16405;53.964;13.448;2022-09-09T14:24:54;100755.44;;;22.29;75.37
29433;BME280;16405;53.964;13.448;2022-09-09T14:27:32;100754.78;;;22.08;76.84
29433;BME280;16405;53.964;13.448;2022-09-09T14:30:09;100747.88;;;22.05;76.56
29433;BME280;16405;53.964;13.448;2022-09-09T14:33:03;100748.06;;;21.84;76.84
29433;BME280;16405;53.964;13.448;2022-09-09T14:35:32;100747.50;;;21.90;76.82
29433;BME280;16405;53.964;13.448;2022-09-09T14:38:08;100746.66;;;21.90;76.70
29433;BME280;16405;53.964;13.448;2022-09-09T14:41:03;100744.84;;;21.71;76.37
29433;BME280;16405;53.964;13.448;2022-09-09T14:43:33;100744.00;;;21.61;77.99
29433;BME280;16405;53.964;13.448;2022-09-09T14:46:13;100749.78;;;21.46;78.95
29433;BME280;16405;53.964;13.448;2022-09-09T14:49:21;100731.31;;;21.24;79.77
29433;BME280;16405;53.964;13.448;2022-09-09T14:51:47;100734.38;;;21.09;80.40
29433;BME280;16405;53.964;13.448;2022-09-09T14:54:13;100732.69;;;20.89;81.29
29433;BME280;16405;53.964;13.448;2022-09-09T14:56:51;100735.72;;;20.75;81.83
29433;BME280;16405;53.964;13.448;2022-09-09T14:59:17;100733.19;;;20.63;83.18
29433;BME280;16405;53.964;13.448;2022-09-09T15:02:38;100731.66;;;20.40;83.20
29433;BME280;16405;53.964;13.448;2022-09-09T15:09:01;100732.53;;;20.19;85.66
29433;BME280;16405;53.964;13.448;2022-09-09T15:11:34;100729.44;;;20.14;86.24
29433;BME280;16405;53.964;13.448;2022-09-09T15:14:13;100730.88;;;20.18;86.17
29433;BME280;16405;53.964;13.448;2022-09-09T15:16:47;100740.50;;;20.31;86.00
29433;BME280;16405;53.964;13.448;2022-09-09T15:19:31;100739.84;;;20.48;85.58
29433;BME280;16405;53.964;13.448;2022-09-09T15:22:04;100738.94;;;20.59;84.96
29433;BME280;16405;53.964;13.448;2022-09-09T15:25:06;100734.16;;;20.62;85.01
29433;BME280;16405;53.964;13.448;2022-09-09T15:27:33;100725.88;;;20.65;84.45
29433;BME280;16405;53.964;13.448;2022-09-09T15:29:59;100738.16;;;20.78;83.67
29433;BME280;16405;53.964;13.448;2022-09-09T15:32:26;100739.97;;;20.77;83.87
29433;BME280;16405;53.964;13.448;2022-09-09T15:34:54;100729.84;;;20.81;84.17
29433;BME280;16405;53.964;13.448;2022-09-09T15:37:20;100738.16;;;20.78;83.84
29433;BME280;16405;53.964;13.448;2022-09-09T15:39:46;100735.91;;;20.83;84.01
29433;BME280;16405;53.964;13.448;2022-09-09T15:42:12;100735.78;;;20.84;83.91
29433;BME280;16405;53.964;13.448;2022-09-09T15:44:42;100734.34;;;20.80;83.48
29433;BME280;16405;53.964;13.448;2022-09-09T15:47:10;100729.25;;;20.67;84.19
29433;BME280;16405;53.964;13.448;2022-09-09T15:49:36;100731.13;;;20.56;84.92
29433;BME280;16405;53.964;13.448;2022-09-09T15:52:02;100730.28;;;20.45;85.27
29433;BME280;16405;53.964;13.448;2022-09-09T15:54:33;100733.34;;;20.41;85.95
29433;BME280;16405;53.964;13.448;2022-09-09T15:57:03;100726.97;;;20.32;86.40
29433;BME280;16405;53.964;13.448;2022-09-09T15:59:31;100718.50;;;20.27;87.17
29433;BME280;16405;53.964;13.448;2022-09-09T16:01:58;100721.28;;;19.85;91.32
29433;BME280;16405;53.964;13.448;2022-09-09T16:04:26;100720.94;;;19.78;93.99
29433;BME280;16405;53.964;13.448;2022-09-09T16:06:59;100723.63;;;19.67;95.59